createdAt,value
2019-06-20T00:01:22.815Z,6.40
2019-06-20T00:03:51.377Z,6.57
2019-06-20T00:06:20.061Z,6.57
2019-06-20T00:08:48.640Z,6.63
2019-06-20T00:11:17.205Z,6.53
2019-06-20T00:13:45.767Z,6.60
2019-06-20T00:16:14.375Z,6.67
2019-06-20T00:18:42.918Z,6.60
2019-06-20T00:21:11.591Z,6.80
2019-06-20T00:23:40.175Z,6.63
2019-06-20T00:26:08.738Z,7.13
2019-06-20T00:28:37.306Z,6.83
2019-06-20T00:31:05.857Z,7.03
2019-06-20T00:33:34.415Z,6.70
2019-06-20T00:36:03.047Z,6.57
2019-06-20T00:38:32.949Z,6.57
2019-06-20T00:41:01.494Z,6.80
2019-06-20T00:43:30.175Z,6.17
2019-06-20T00:45:58.719Z,6.60
2019-06-20T00:48:27.283Z,6.47
2019-06-20T00:50:55.855Z,6.33
2019-06-20T00:53:24.416Z,6.00
2019-06-20T00:55:53.045Z,6.13
2019-06-20T00:58:21.735Z,6.07
2019-06-20T01:00:50.294Z,6.30
2019-06-20T01:03:18.918Z,6.30
2019-06-20T01:05:47.482Z,6.13
2019-06-20T01:08:16.046Z,5.90
2019-06-20T01:10:44.665Z,5.83
2019-06-20T01:13:13.364Z,5.73
2019-06-20T01:15:41.927Z,5.90
2019-06-20T01:18:10.481Z,5.77
2019-06-20T01:20:39.123Z,5.60
2019-06-20T01:23:07.690Z,5.97
2019-06-20T01:25:38.890Z,5.60
2019-06-20T01:28:09.026Z,6.10
2019-06-20T01:30:37.731Z,5.70
2019-06-20T01:33:07.427Z,5.90
2019-06-20T01:35:36.077Z,5.97
2019-06-20T01:38:04.776Z,6.13
2019-06-20T01:40:33.335Z,6.20
2019-06-20T01:43:02.646Z,6.10
2019-06-20T01:45:31.206Z,6.00
2019-06-20T01:47:59.772Z,5.70
2019-06-20T01:50:28.346Z,6.07
2019-06-20T01:52:56.887Z,6.43
2019-06-20T01:55:25.484Z,6.10
2019-06-20T01:57:54.205Z,6.13
2019-06-20T02:00:34.782Z,6.30
2019-06-20T02:03:03.396Z,6.47
2019-06-20T02:05:31.961Z,6.17
2019-06-20T02:08:00.525Z,6.00
2019-06-20T02:10:29.195Z,6.70
2019-06-20T02:12:57.743Z,6.30
2019-06-20T02:15:26.382Z,6.70
2019-06-20T02:17:54.962Z,6.40
2019-06-20T02:20:32.085Z,6.90
2019-06-20T02:23:00.642Z,7.00
2019-06-20T02:25:29.355Z,6.70
2019-06-20T02:27:57.992Z,6.20
2019-06-20T02:30:26.783Z,7.07
2019-06-20T02:32:55.489Z,6.70
2019-06-20T02:35:24.296Z,6.33
2019-06-20T02:37:53.054Z,6.43
2019-06-20T02:40:22.232Z,6.70
2019-06-20T02:42:50.881Z,6.40
2019-06-20T02:45:19.745Z,6.37
2019-06-20T02:47:48.385Z,6.57
2019-06-20T02:50:17.813Z,6.50
2019-06-20T02:52:46.506Z,6.57
2019-06-20T02:55:15.295Z,6.30
2019-06-20T02:57:43.878Z,6.50
2019-06-20T03:00:13.478Z,6.50
2019-06-20T03:02:42.030Z,6.83
2019-06-20T03:05:11.723Z,6.53
2019-06-20T03:07:40.300Z,6.40
2019-06-20T03:10:09.378Z,6.10
2019-06-20T03:12:38.062Z,6.00
2019-06-20T03:15:07.846Z,6.17
2019-06-20T03:17:36.403Z,6.20
2019-06-20T03:20:06.726Z,5.90
2019-06-20T03:22:35.275Z,5.90
2019-06-20T03:25:05.243Z,6.37
2019-06-20T03:27:33.815Z,5.67
2019-06-20T03:30:02.390Z,5.70
2019-06-20T03:32:31.144Z,6.00
2019-06-20T03:34:59.766Z,5.67
2019-06-20T03:37:28.334Z,5.60
2019-06-20T03:39:56.906Z,5.80
2019-06-20T03:42:25.684Z,5.83
2019-06-20T03:45:02.172Z,5.57
2019-06-20T03:47:24.503Z,6.37
2019-06-20T03:49:53.076Z,5.47
2019-06-20T03:52:21.631Z,5.33
2019-06-20T03:54:50.190Z,5.40
2019-06-20T03:57:18.763Z,5.10
2019-06-20T03:59:47.319Z,4.90
2019-06-20T04:02:15.945Z,5.20
2019-06-20T04:04:44.519Z,4.77
2019-06-20T04:07:13.067Z,4.70
2019-06-20T04:09:41.629Z,4.70
2019-06-20T04:12:10.195Z,4.90
2019-06-20T04:14:38.758Z,5.23
2019-06-20T04:17:07.329Z,5.03
2019-06-20T04:19:35.927Z,4.70
2019-06-20T04:22:04.546Z,4.87
2019-06-20T04:24:33.102Z,4.60
2019-06-20T04:27:01.682Z,4.60
2019-06-20T04:29:30.319Z,4.30
2019-06-20T04:31:58.872Z,4.37
2019-06-20T04:34:27.506Z,3.80
2019-06-20T04:36:56.072Z,3.57
2019-06-20T04:39:24.629Z,4.10
2019-06-20T04:41:53.266Z,3.70
2019-06-20T04:44:21.819Z,3.47
2019-06-20T04:46:52.012Z,4.00
2019-06-20T04:49:20.576Z,3.83
2019-06-20T04:51:49.126Z,3.70
2019-06-20T04:54:17.827Z,3.70
2019-06-20T04:56:46.487Z,3.90
2019-06-20T04:59:15.047Z,3.87
2019-06-20T05:01:43.684Z,3.60
2019-06-20T05:04:12.336Z,4.10
2019-06-20T05:06:42.797Z,4.20
2019-06-20T05:09:11.423Z,3.77
2019-06-20T05:11:40.001Z,3.67
2019-06-20T05:14:08.551Z,3.73
2019-06-20T05:16:37.162Z,3.33
2019-06-20T05:19:05.690Z,4.00
2019-06-20T05:21:34.394Z,3.80
2019-06-20T05:24:02.918Z,3.60
2019-06-20T05:26:31.487Z,3.73
2019-06-20T05:29:00.059Z,3.70
2019-06-20T05:31:28.607Z,3.57
2019-06-20T05:33:57.171Z,3.50
2019-06-20T05:36:25.790Z,3.70
2019-06-20T05:38:54.426Z,3.70
2019-06-20T05:41:22.972Z,3.87
2019-06-20T05:43:51.569Z,3.87
2019-06-20T05:46:20.109Z,4.03
2019-06-20T05:48:48.742Z,4.13
2019-06-20T05:51:17.289Z,4.60
2019-06-20T05:53:45.858Z,4.20
2019-06-20T05:56:14.484Z,4.90
2019-06-20T05:58:43.047Z,4.40
2019-06-20T06:01:11.832Z,4.47
2019-06-20T06:03:40.621Z,4.60
2019-06-20T06:06:09.313Z,4.20
2019-06-20T06:08:37.841Z,4.30
2019-06-20T06:11:06.857Z,4.20
2019-06-20T06:13:35.728Z,4.40
2019-06-20T06:16:04.543Z,4.40
2019-06-20T06:18:33.102Z,4.40
2019-06-20T06:21:01.687Z,3.97
2019-06-20T06:23:30.265Z,4.40
2019-06-20T06:25:58.970Z,4.20
2019-06-20T06:28:27.604Z,4.50
2019-06-20T06:30:56.152Z,4.43
2019-06-20T06:33:25.095Z,4.50
2019-06-20T06:35:53.743Z,4.67
2019-06-20T06:38:22.511Z,4.43
2019-06-20T06:40:51.423Z,4.87
2019-06-20T06:43:19.970Z,5.10
2019-06-20T06:45:48.520Z,5.10
2019-06-20T06:48:17.174Z,4.43
2019-06-20T06:50:45.743Z,5.17
2019-06-20T06:53:14.304Z,5.00
2019-06-20T06:55:42.886Z,4.90
2019-06-20T06:58:11.456Z,5.30
2019-06-20T07:00:40.012Z,5.17
2019-06-20T07:03:08.570Z,5.70
2019-06-20T07:05:37.203Z,5.70
2019-06-20T07:08:05.743Z,5.60
2019-06-20T07:10:34.351Z,5.63
2019-06-20T07:13:02.883Z,6.00
2019-06-20T07:15:32.126Z,6.00
2019-06-20T07:18:00.670Z,6.37
2019-06-20T07:20:29.294Z,6.70
2019-06-20T07:22:57.879Z,7.33
2019-06-20T07:25:26.519Z,7.43
2019-06-20T07:27:58.217Z,7.20
2019-06-20T07:30:27.328Z,7.63
2019-06-20T07:32:55.871Z,7.37
2019-06-20T07:35:24.527Z,7.47
2019-06-20T07:37:53.185Z,8.50
2019-06-20T07:40:23.270Z,9.33
2019-06-20T07:42:51.830Z,8.93
2019-06-20T07:45:27.023Z,9.10
2019-06-20T07:47:53.794Z,8.47
2019-06-20T07:50:22.545Z,9.57
2019-06-20T07:53:01.484Z,10.13
2019-06-20T07:55:21.323Z,10.13
2019-06-20T07:57:49.882Z,10.30
2019-06-20T08:00:20.075Z,11.67
2019-06-20T08:02:48.647Z,11.03
2019-06-20T08:05:18.821Z,12.07
2019-06-20T08:07:47.385Z,11.80
2019-06-20T08:10:18.067Z,12.40
2019-06-20T08:12:46.632Z,13.67
2019-06-20T08:15:17.108Z,14.43
2019-06-20T08:17:45.688Z,13.83
2019-06-20T08:20:14.847Z,14.80
2019-06-20T08:22:43.864Z,14.83
2019-06-20T08:25:15.876Z,14.57
2019-06-20T08:27:53.956Z,16.23
2019-06-20T08:30:31.514Z,15.17
2019-06-20T08:33:01.880Z,15.20
2019-06-20T08:35:31.903Z,15.27
2019-06-20T08:38:01.389Z,16.17
2019-06-20T08:40:33.204Z,16.67
2019-06-20T08:43:02.233Z,16.80
2019-06-20T08:45:33.643Z,18.00
2019-06-20T08:48:02.740Z,17.53
2019-06-20T08:50:32.358Z,17.00
2019-06-20T08:53:01.667Z,18.33
2019-06-20T08:55:30.908Z,17.53
2019-06-20T08:58:01.269Z,16.13
2019-06-20T09:00:31.870Z,16.17
2019-06-20T09:03:00.648Z,17.27
2019-06-20T09:05:30.840Z,15.27
2019-06-20T09:10:38.474Z,13.80
2019-06-20T09:13:08.487Z,14.33
2019-06-20T09:15:37.183Z,14.47
2019-06-20T09:18:07.983Z,14.33
2019-06-20T09:20:37.532Z,14.37
2019-06-20T09:23:06.275Z,13.93
2019-06-20T09:25:35.209Z,15.03
2019-06-20T09:28:04.539Z,14.03
2019-06-20T09:30:34.442Z,14.00
2019-06-20T09:33:04.173Z,13.70
2019-06-20T09:35:33.169Z,14.17
2019-06-20T09:38:01.806Z,13.10
2019-06-20T09:40:30.594Z,12.67
2019-06-20T09:42:59.174Z,12.40
2019-06-20T09:45:27.875Z,9.97
2019-06-20T09:47:56.506Z,9.90
2019-06-20T09:50:25.926Z,7.60
2019-06-20T09:52:54.927Z,7.03
2019-06-20T09:55:24.763Z,8.00
2019-06-20T09:57:53.709Z,9.87
2019-06-20T10:00:25.930Z,10.33
2019-06-20T10:02:56.265Z,11.40
2019-06-20T10:05:24.916Z,12.10
2019-06-20T10:07:54.554Z,12.23
2019-06-20T10:10:33.264Z,12.80
2019-06-20T10:13:01.802Z,12.57
2019-06-20T10:15:36.030Z,15.57
2019-06-20T10:18:05.042Z,16.47
2019-06-20T10:20:39.095Z,15.47
2019-06-20T10:23:08.181Z,16.60
2019-06-20T10:25:37.360Z,17.10
2019-06-20T10:28:06.098Z,17.83
2019-06-20T10:30:34.646Z,18.57
2019-06-20T10:33:03.290Z,18.70
2019-06-20T10:35:32.386Z,17.93
2019-06-20T10:38:00.952Z,19.60
2019-06-20T10:40:30.056Z,19.23
2019-06-20T10:43:00.309Z,20.50
2019-06-20T10:45:29.926Z,18.93
2019-06-20T10:48:00.498Z,19.03
2019-06-20T10:50:32.115Z,17.33
2019-06-20T10:53:00.750Z,18.07
2019-06-20T10:55:29.395Z,16.20
2019-06-20T10:57:58.051Z,15.97
2019-06-20T11:00:31.419Z,16.83
2019-06-20T11:02:57.647Z,15.07
2019-06-20T11:05:26.956Z,14.03
2019-06-20T11:07:55.530Z,13.20
2019-06-20T11:10:24.412Z,13.50
2019-06-20T11:12:55.962Z,15.87
2019-06-20T11:15:23.938Z,15.53
2019-06-20T11:17:55.999Z,13.67
2019-06-20T11:20:23.141Z,15.33
2019-06-20T11:22:51.698Z,13.33
2019-06-20T11:25:21.394Z,14.03
2019-06-20T11:27:49.962Z,11.67
2019-06-20T11:30:24.108Z,11.50
2019-06-20T11:32:52.718Z,11.33
2019-06-20T11:35:21.344Z,12.63
2019-06-20T11:37:49.976Z,14.13
2019-06-20T11:40:18.994Z,13.47
2019-06-20T11:42:47.604Z,13.33
2019-06-20T11:45:19.628Z,12.90
2019-06-20T11:47:48.236Z,12.20
2019-06-20T11:50:19.041Z,13.27
2019-06-20T11:52:47.599Z,13.43
2019-06-20T11:55:17.503Z,14.10
2019-06-20T11:57:46.134Z,12.13
2019-06-20T12:00:15.841Z,12.00
2019-06-20T12:02:45.938Z,13.60
2019-06-20T12:05:17.148Z,15.10
2019-06-20T12:07:47.197Z,14.17
2019-06-20T12:10:19.364Z,14.13
2019-06-20T12:12:49.169Z,15.20
2019-06-20T12:15:19.190Z,14.70
2019-06-20T12:17:49.122Z,16.53
2019-06-20T12:20:18.354Z,16.13
2019-06-20T12:22:46.869Z,18.47
2019-06-20T12:25:16.198Z,18.07
2019-06-20T12:27:45.375Z,19.27
2019-06-20T12:30:16.804Z,18.70
2019-06-20T12:32:46.679Z,18.43
2019-06-20T12:35:16.318Z,19.53
2019-06-20T12:37:45.247Z,21.30
2019-06-20T12:40:15.314Z,22.30
2019-06-20T12:42:44.868Z,21.47
2019-06-20T12:45:15.474Z,20.47
2019-06-20T12:47:45.926Z,22.07
2019-06-20T12:50:16.387Z,23.37
2019-06-20T12:52:45.722Z,22.83
2019-06-20T12:55:15.127Z,24.33
2019-06-20T12:57:44.276Z,24.63
2019-06-20T13:00:14.747Z,25.73
2019-06-20T13:02:43.789Z,26.23
2019-06-20T13:05:14.690Z,25.47
2019-06-20T13:07:44.227Z,25.00
2019-06-20T13:10:14.941Z,24.63
2019-06-20T13:12:44.313Z,26.00
2019-06-20T13:15:13.977Z,25.77
2019-06-20T13:17:43.646Z,26.27
2019-06-20T13:20:13.768Z,24.53
2019-06-20T13:22:42.871Z,24.33
2019-06-20T13:25:12.469Z,24.60
2019-06-20T13:27:41.144Z,25.43
2019-06-20T13:30:10.449Z,26.67
2019-06-20T13:32:40.205Z,25.73
2019-06-20T13:35:10.508Z,26.83
2019-06-20T13:37:40.202Z,27.00
2019-06-20T13:40:13.128Z,26.60
2019-06-20T13:42:43.674Z,26.50
2019-06-20T13:45:23.884Z,25.27
2019-06-20T13:47:53.273Z,25.73
2019-06-20T13:50:24.493Z,25.17
2019-06-20T13:52:53.710Z,26.10
2019-06-20T13:55:23.303Z,25.13
2019-06-20T13:57:51.989Z,25.90
2019-06-20T14:00:23.490Z,25.67
2019-06-20T14:02:52.120Z,25.43
2019-06-20T14:05:21.833Z,24.77
2019-06-20T14:07:53.803Z,22.90
2019-06-20T14:10:20.884Z,23.70
2019-06-20T14:12:49.565Z,22.93
2019-06-20T14:15:18.556Z,20.97
2019-06-20T14:17:47.589Z,22.27
2019-06-20T14:20:18.311Z,21.37
2019-06-20T14:22:46.858Z,21.57
2019-06-20T14:25:16.258Z,21.43
2019-06-20T14:27:46.047Z,21.47
2019-06-20T14:30:15.554Z,22.50
2019-06-20T14:32:44.108Z,21.83
2019-06-20T14:35:13.533Z,19.30
2019-06-20T14:37:43.936Z,19.40
2019-06-20T14:40:13.200Z,19.80
2019-06-20T14:42:42.971Z,17.63
2019-06-20T14:45:12.743Z,17.87
2019-06-20T14:47:41.319Z,16.80
2019-06-20T14:50:12.204Z,17.37
2019-06-20T14:52:40.774Z,16.00
2019-06-20T14:55:09.673Z,15.20
2019-06-20T14:57:38.254Z,15.13
2019-06-20T15:00:08.724Z,14.83
2019-06-20T15:02:38.932Z,14.77
2019-06-20T15:05:15.273Z,13.97
2019-06-20T15:07:45.030Z,11.73
2019-06-20T15:10:15.750Z,11.40
2019-06-20T15:12:45.813Z,11.47
2019-06-20T15:15:16.139Z,9.77
2019-06-20T15:17:46.506Z,10.60
2019-06-20T15:20:16.351Z,9.70
2019-06-20T15:22:46.781Z,10.50
2019-06-20T15:25:16.156Z,10.77
2019-06-20T15:27:47.273Z,12.27
2019-06-20T15:30:15.880Z,11.70
2019-06-20T15:32:55.312Z,12.50
2019-06-20T15:35:14.799Z,13.23
2019-06-20T15:37:43.617Z,14.20
2019-06-20T15:40:12.947Z,15.43
2019-06-20T15:42:41.537Z,15.37
2019-06-20T15:45:11.208Z,15.63
2019-06-20T15:47:39.944Z,16.87
2019-06-20T15:50:10.484Z,18.17
2019-06-20T15:52:39.247Z,18.33
2019-06-20T15:55:08.943Z,17.53
2019-06-20T15:57:37.568Z,19.90
2019-06-20T16:00:08.484Z,17.93
2019-06-20T16:02:37.086Z,18.63
2019-06-20T16:05:07.994Z,13.47
2019-06-20T16:07:36.900Z,5.87
2019-06-20T16:10:11.781Z,5.60
2019-06-20T16:12:40.446Z,5.00
2019-06-20T16:15:10.604Z,5.27
2019-06-20T16:17:39.237Z,7.23
2019-06-20T16:20:09.156Z,6.60
2019-06-20T16:22:37.750Z,8.97
2019-06-20T16:25:06.769Z,6.90
2019-06-20T16:27:35.542Z,7.40
2019-06-20T16:30:06.145Z,8.33
2019-06-20T16:32:34.997Z,7.23
2019-06-20T16:35:07.790Z,8.73
2019-06-20T16:37:36.734Z,8.47
2019-06-20T16:40:09.690Z,8.00
2019-06-20T16:42:38.524Z,8.67
2019-06-20T16:45:08.222Z,9.70
2019-06-20T16:47:36.851Z,8.87
2019-06-20T16:50:07.271Z,9.83
2019-06-20T16:52:35.911Z,10.33
2019-06-20T16:55:06.799Z,9.83
2019-06-20T16:57:35.388Z,10.07
2019-06-20T17:00:07.365Z,10.57
2019-06-20T17:02:36.433Z,10.30
2019-06-20T17:05:06.671Z,10.67
2019-06-20T17:07:35.278Z,9.30
2019-06-20T17:10:06.108Z,9.77
2019-06-20T17:12:34.680Z,8.97
2019-06-20T17:15:03.477Z,10.60
2019-06-20T17:17:33.056Z,9.60
2019-06-20T17:20:01.733Z,8.07
2019-06-20T17:22:30.889Z,7.90
2019-06-20T17:24:59.827Z,8.20
2019-06-20T17:27:28.379Z,9.07
2019-06-20T17:29:56.939Z,8.47
2019-06-20T17:32:25.681Z,7.17
2019-06-20T17:34:54.194Z,7.13
2019-06-20T17:37:22.776Z,6.10
2019-06-20T17:39:51.548Z,5.17
2019-06-20T17:42:20.067Z,4.80
2019-06-20T17:44:48.642Z,5.83
2019-06-20T17:55:57.210Z,5.60
2019-06-20T17:58:25.753Z,4.80
2019-06-20T18:00:54.227Z,4.80
2019-06-20T18:03:23.136Z,4.70
2019-06-20T18:05:51.691Z,4.67
2019-06-20T18:08:20.637Z,4.33
2019-06-20T18:10:49.738Z,4.57
2019-06-20T18:13:19.078Z,4.50
2019-06-20T18:15:48.163Z,4.67
2019-06-20T18:18:16.788Z,4.57
2019-06-20T18:20:45.458Z,4.90
2019-06-20T18:23:14.016Z,4.60
2019-06-20T18:25:43.607Z,4.70
2019-06-20T18:28:12.214Z,4.40
2019-06-20T18:30:43.026Z,4.13
2019-06-20T18:33:13.239Z,4.20
2019-06-20T18:35:41.918Z,3.97
2019-06-20T18:38:10.833Z,4.37
2019-06-20T18:40:39.408Z,4.17
2019-06-20T18:43:08.000Z,3.83
2019-06-20T18:45:36.617Z,3.97
2019-06-20T18:48:05.592Z,4.03
2019-06-20T18:50:34.114Z,3.80
2019-06-20T18:53:02.757Z,3.80
2019-06-20T18:55:31.398Z,4.13
2019-06-20T18:57:59.969Z,4.13
2019-06-20T19:00:34.762Z,4.13
2019-06-20T19:02:59.386Z,3.77
2019-06-20T19:05:28.298Z,3.93
2019-06-20T19:07:56.934Z,3.20
2019-06-20T19:10:25.598Z,3.20
2019-06-20T19:12:54.207Z,3.03
2019-06-20T19:15:23.851Z,3.10
2019-06-20T19:17:52.373Z,3.10
2019-06-20T19:20:21.770Z,2.90
2019-06-20T19:22:50.391Z,2.90
2019-06-20T19:25:19.681Z,2.70
2019-06-20T19:27:48.229Z,2.97
2019-06-20T19:30:18.226Z,2.50
2019-06-20T19:32:46.692Z,2.60
2019-06-20T19:35:15.597Z,2.50
2019-06-20T19:37:44.267Z,2.50
2019-06-20T19:40:14.424Z,2.73
2019-06-20T19:42:42.985Z,2.73
2019-06-20T19:45:13.029Z,2.70
2019-06-20T19:47:42.309Z,3.00
2019-06-20T19:50:11.692Z,2.90
2019-06-20T19:52:40.993Z,2.80
2019-06-20T19:55:10.384Z,2.77
2019-06-20T19:57:39.161Z,2.37
2019-06-20T20:00:08.802Z,2.20
2019-06-20T20:02:37.493Z,2.33
2019-06-20T20:05:19.070Z,1.97
2019-06-20T20:07:40.619Z,1.90
2019-06-20T20:10:10.815Z,1.93
2019-06-20T20:12:39.422Z,1.60
2019-06-20T20:15:09.613Z,1.80
2019-06-20T20:17:38.127Z,1.60
2019-06-20T20:20:07.904Z,1.70
2019-06-20T20:22:36.495Z,1.63
2019-06-20T20:25:08.606Z,1.60
2019-06-20T20:27:37.237Z,1.70
2019-06-20T20:30:09.098Z,1.60
2019-06-20T20:32:37.745Z,1.80
2019-06-20T20:35:06.511Z,1.70
2019-06-20T20:37:40.115Z,1.80
2019-06-20T20:40:11.239Z,2.03
2019-06-20T20:42:42.324Z,1.70
2019-06-20T20:45:11.173Z,1.80
2019-06-20T20:47:42.851Z,1.90
2019-06-20T20:50:12.021Z,1.90
2019-06-20T20:52:40.908Z,1.90
2019-06-20T20:55:11.634Z,1.70
2019-06-20T20:57:41.070Z,1.80
2019-06-20T21:00:12.702Z,1.80
2019-06-20T21:02:41.266Z,1.63
2019-06-20T21:05:10.048Z,1.83
2019-06-20T21:07:39.321Z,1.80
2019-06-20T21:10:08.738Z,1.90
2019-06-20T21:12:37.322Z,1.70
2019-06-20T21:15:09.589Z,1.70
2019-06-20T21:17:38.275Z,1.83
2019-06-20T21:20:08.944Z,1.90
2019-06-20T21:22:39.174Z,1.97
2019-06-20T21:25:08.169Z,2.10
2019-06-20T21:27:36.914Z,1.97
2019-06-20T21:30:08.828Z,1.80
2019-06-20T21:32:37.649Z,2.10
2019-06-20T21:35:08.236Z,2.20
2019-06-20T21:37:36.889Z,1.80
2019-06-20T21:40:06.689Z,2.17
2019-06-20T21:42:35.871Z,2.10
2019-06-20T21:45:07.054Z,2.00
2019-06-20T21:47:35.617Z,2.57
2019-06-20T21:50:06.919Z,2.27
2019-06-20T21:52:35.660Z,2.40
2019-06-20T21:55:05.916Z,2.47
2019-06-20T21:57:34.486Z,2.10
2019-06-20T22:00:05.284Z,2.07
2019-06-20T22:02:33.972Z,2.50
2019-06-20T22:05:02.868Z,2.60
2019-06-20T22:07:31.481Z,2.30
2019-06-20T22:10:00.243Z,2.27
2019-06-20T22:12:28.820Z,2.30
2019-06-20T22:14:57.464Z,2.60
2019-06-20T22:17:26.084Z,2.53
2019-06-20T22:19:54.752Z,2.27
2019-06-20T22:22:23.600Z,2.30
2019-06-20T22:24:52.136Z,2.33
2019-06-20T22:27:20.738Z,2.40
2019-06-20T22:29:49.527Z,2.37
2019-06-20T22:32:18.116Z,2.40
2019-06-20T22:34:46.702Z,2.30
2019-06-20T22:37:15.278Z,2.17
2019-06-20T22:39:43.845Z,2.60
2019-06-20T22:42:12.423Z,2.27
2019-06-20T22:44:41.040Z,2.70
2019-06-20T22:47:09.687Z,2.50
2019-06-20T22:49:38.251Z,3.00
2019-06-20T22:52:07.015Z,2.70
2019-06-20T22:54:35.646Z,2.67
2019-06-20T22:57:04.300Z,3.00
2019-06-20T22:59:32.862Z,2.70
2019-06-20T23:02:01.418Z,3.07
2019-06-20T23:04:29.991Z,2.90
2019-06-20T23:06:58.551Z,2.70
2019-06-20T23:09:27.710Z,2.90
2019-06-20T23:11:56.363Z,3.00
2019-06-20T23:14:24.921Z,3.10
2019-06-20T23:16:53.485Z,2.90
2019-06-20T23:19:22.022Z,2.73
2019-06-20T23:21:50.629Z,3.27
2019-06-20T23:24:19.181Z,2.80
2019-06-20T23:26:47.738Z,3.03
2019-06-20T23:29:22.606Z,2.70
2019-06-20T23:31:54.268Z,2.63
2019-06-20T23:34:22.903Z,2.57
2019-06-20T23:36:51.652Z,2.80
2019-06-20T23:39:20.351Z,2.80
2019-06-20T23:41:48.990Z,2.70
2019-06-20T23:44:17.674Z,2.90
2019-06-20T23:46:46.312Z,2.97
2019-06-20T23:49:14.931Z,2.70
2019-06-20T23:51:45.150Z,2.77
2019-06-20T23:54:13.728Z,3.03
2019-06-20T23:56:42.283Z,2.90
2019-06-20T23:59:12.408Z,2.67
